Dubai Fortune — H9SA — position and weather

sailwx.info

Track history (hours):
 
Tides and Currents Weather Stations Pressure Air Temp Water Temp Dewpoint Dewpoint Depression Visibility Wind Speed Wind Dir Waves Ship Positions

Dubai Fortune

Last reported at 2016-Sep-29 08:33 UTC. Time now 2016-Sep-29 15:23 UTC.
Position N 01°23' E 103°57'.

Length 188 m; draft 7.8 m.

Type: Cargo ship. MMSI: 353316000.

Date/timePositionNaut miles runAvg speedWind from/ knotsBaromVisibWave heightAir tempDewpointWater temp
2016-Sep-29 08:33N 01°23' E 103°57'9 8.5
2016-Sep-29 07:33N 01°20' E 104°05'22 3.1
2016-Sep-29 00:30N 01°18' E 103°43'0 0.0
2016-Sep-28 21:30N 01°18' E 103°43'0 0.0
2016-Sep-28 19:33N 01°18' E 103°43'0 0.0
2016-Sep-28 16:30N 01°18' E 103°43'0 0.1
2016-Sep-28 15:30N 01°18' E 103°43'0 0.0
2016-Sep-28 12:30N 01°18' E 103°43'0 0.0
2016-Sep-28 08:30N 01°18' E 103°43'0 0.0
2016-Sep-28 03:30N 01°18' E 103°43'0 0.0
2016-Sep-28 02:30N 01°18' E 103°43'0 0.0
2016-Sep-28 01:30N 01°18' E 103°43'0 0.0
2016-Sep-27 23:30N 01°18' E 103°43'0 0.0
2016-Sep-27 19:30N 01°18' E 103°43'0 0.0
2016-Sep-27 14:30N 01°18' E 103°43'0 0.1
2016-Sep-27 13:30N 01°18' E 103°43'0 0.0
2016-Sep-27 10:30N 01°18' E 103°43'0 0.0
2016-Sep-27 00:24N 01°18' E 103°43'0 0.0
2016-Sep-26 20:30N 01°18' E 103°43'0 0.0
2016-Sep-26 19:30N 01°18' E 103°43'0 0.0
2016-Sep-26 15:33N 01°18' E 103°43'0 0.0
2016-Sep-26 13:30N 01°18' E 103°43'0 0.0
2016-Sep-26 11:30N 01°18' E 103°43'0 0.0
2016-Sep-26 08:33N 01°18' E 103°43'0 0.0
2016-Sep-26 02:21N 01°18' E 103°43'0 0.0
2016-Sep-26 01:21N 01°18' E 103°43'0 0.1
2016-Sep-26 00:33N 01°18' E 103°43'1 0.5
2016-Sep-25 21:33N 01°17' E 103°44'78 8.4
2016-Sep-25 12:20N 01°45' E 102°32'8 8.9
2016-Sep-25 11:29N 01°48' E 102°25'8 4.1
2016-Sep-25 09:33N 01°52' E 102°18'  
2016-Sep-22 23:11N 01°60' E 102°13'11310.6
2016-Sep-22 12:33N 01°14' E 103°56'  
Track history (hours):
 
Tides and Currents Weather Stations Pressure Air Temp Water Temp Dewpoint Dewpoint Depression Visibility Wind Speed Wind Dir Waves Ship Positions

Dubai Fortune

Last reported at 2016-Sep-29 08:33 UTC. Time now 2016-Sep-29 15:23 UTC.
Position N 01°23' E 103°57'.

Length 188 m; draft 7.8 m.

Type: Cargo ship. MMSI: 353316000.

Date/timePositionNaut miles runAvg speedWind from/ knotsBaromVisibWave heightAir tempDewpointWater temp
2016-Sep-29 08:33N 01°23' E 103°57'9 8.5
2016-Sep-29 07:33N 01°20' E 104°05'22 3.1
2016-Sep-29 00:30N 01°18' E 103°43'0 0.0
2016-Sep-28 21:30N 01°18' E 103°43'0 0.0
2016-Sep-28 19:33N 01°18' E 103°43'0 0.0
2016-Sep-28 16:30N 01°18' E 103°43'0 0.1
2016-Sep-28 15:30N 01°18' E 103°43'0 0.0
2016-Sep-28 12:30N 01°18' E 103°43'0 0.0
2016-Sep-28 08:30N 01°18' E 103°43'0 0.0
2016-Sep-28 03:30N 01°18' E 103°43'0 0.0
2016-Sep-28 02:30N 01°18' E 103°43'0 0.0
2016-Sep-28 01:30N 01°18' E 103°43'0 0.0
2016-Sep-27 23:30N 01°18' E 103°43'0 0.0
2016-Sep-27 19:30N 01°18' E 103°43'0 0.0
2016-Sep-27 14:30N 01°18' E 103°43'0 0.1
2016-Sep-27 13:30N 01°18' E 103°43'0 0.0
2016-Sep-27 10:30N 01°18' E 103°43'0 0.0
2016-Sep-27 00:24N 01°18' E 103°43'0 0.0
2016-Sep-26 20:30N 01°18' E 103°43'0 0.0
2016-Sep-26 19:30N 01°18' E 103°43'0 0.0
2016-Sep-26 15:33N 01°18' E 103°43'0 0.0
2016-Sep-26 13:30N 01°18' E 103°43'0 0.0
2016-Sep-26 11:30N 01°18' E 103°43'0 0.0
2016-Sep-26 08:33N 01°18' E 103°43'0 0.0
2016-Sep-26 02:21N 01°18' E 103°43'0 0.0
2016-Sep-26 01:21N 01°18' E 103°43'0 0.1
2016-Sep-26 00:33N 01°18' E 103°43'1 0.5
2016-Sep-25 21:33N 01°17' E 103°44'78 8.4
2016-Sep-25 12:20N 01°45' E 102°32'8 8.9
2016-Sep-25 11:29N 01°48' E 102°25'8 4.1
2016-Sep-25 09:33N 01°52' E 102°18'  
2016-Sep-22 23:11N 01°60' E 102°13'11310.6
2016-Sep-22 12:33N 01°14' E 103°56'  

Dump ship's entire track history